createdAt,value
2022-08-19T00:02:03.086Z,100096.78
2022-08-19T00:04:33.408Z,100112.91
2022-08-19T00:07:07.619Z,100097.94
2022-08-19T00:09:34.376Z,100081.28
2022-08-19T00:12:01.296Z,100091.28
2022-08-19T00:14:28.802Z,100087.66
2022-08-19T00:16:55.811Z,100076.84
2022-08-19T00:19:23.811Z,100079.63
2022-08-19T00:21:51.131Z,100082.06
2022-08-19T00:24:20.167Z,100084.03
2022-08-19T00:26:46.772Z,100087.59
2022-08-19T00:29:20.236Z,100090.63
2022-08-19T00:31:47.349Z,100085.09
2022-08-19T00:34:15.541Z,100092.84
2022-08-19T00:36:43.361Z,100094.19
2022-08-19T00:39:10.619Z,100077.56
2022-08-19T00:41:37.134Z,100074.47
2022-08-19T00:44:09.498Z,100075.91
2022-08-19T00:46:39.131Z,100070.34
2022-08-19T00:49:20.655Z,100075.91
2022-08-19T00:51:54.514Z,100081.44
2022-08-19T00:54:31.234Z,100076.16
2022-08-19T00:57:00.286Z,100080.56
2022-08-19T01:00:01.128Z,100077.50
2022-08-19T01:02:24.697Z,100082.19
2022-08-19T01:04:51.148Z,100075.50
2022-08-19T01:07:27.726Z,100068.31
2022-08-19T01:09:54.823Z,100061.09
2022-08-19T01:12:24.290Z,100060.84
2022-08-19T01:14:51.498Z,100066.63
2022-08-19T01:17:20.026Z,100069.91
2022-08-19T01:19:48.486Z,100073.53
2022-08-19T01:22:31.534Z,100086.78
2022-08-19T01:24:59.675Z,100092.94
2022-08-19T01:27:26.415Z,100089.06
2022-08-19T01:29:58.365Z,100087.63
2022-08-19T01:32:33.411Z,100080.41
2022-08-19T01:35:02.919Z,100082.94
2022-08-19T01:37:29.944Z,100082.69
2022-08-19T01:39:56.563Z,100081.84
2022-08-19T01:42:30.422Z,100087.97
2022-08-19T01:44:57.940Z,100069.66
2022-08-19T01:47:24.469Z,100073.00
2022-08-19T01:49:50.884Z,100070.25
2022-08-19T01:52:17.365Z,100067.47
2022-08-19T01:54:43.800Z,100076.03
2022-08-19T01:57:13.526Z,100078.75
2022-08-19T01:59:48.732Z,100085.66
2022-08-19T02:02:18.416Z,100088.97
2022-08-19T02:04:48.020Z,100093.09
2022-08-19T02:07:24.943Z,100094.44
2022-08-19T02:09:54.861Z,100092.78
2022-08-19T02:12:23.810Z,100100.53
2022-08-19T02:14:52.539Z,100096.03
2022-08-19T02:17:19.297Z,100097.72
2022-08-19T02:19:45.776Z,100098.75
2022-08-19T02:22:12.233Z,100102.63
2022-08-19T02:24:45.734Z,100103.69
2022-08-19T02:27:12.192Z,100113.91
2022-08-19T02:29:38.757Z,100112.56
2022-08-19T02:32:06.583Z,100106.44
2022-08-19T02:34:33.154Z,100108.38
2022-08-19T02:37:03.502Z,100096.44
2022-08-19T02:39:36.778Z,100092.34
2022-08-19T02:42:03.325Z,100095.13
2022-08-19T02:44:31.998Z,100098.44
2022-08-19T02:46:58.759Z,100092.38
2022-08-19T02:49:29.715Z,100098.75
2022-08-19T02:52:07.752Z,100091.03
2022-08-19T02:54:34.501Z,100094.91
2022-08-19T02:57:00.938Z,100096.50
2022-08-19T02:59:31.306Z,100089.34
2022-08-19T03:01:57.748Z,100081.88
2022-08-19T03:04:25.252Z,100081.88
2022-08-19T03:06:53.978Z,100076.59
2022-08-19T03:09:27.315Z,100073.81
2022-08-19T03:11:57.806Z,100077.13
2022-08-19T03:14:24.207Z,100075.44
2022-08-19T03:16:52.928Z,100077.13
2022-08-19T03:19:22.144Z,100085.97
2022-08-19T03:21:48.843Z,100083.44
2022-08-19T03:24:19.685Z,100087.88
2022-08-19T03:26:59.802Z,100083.13
2022-08-19T03:29:32.548Z,100096.16
2022-08-19T03:32:04.816Z,100083.13
2022-08-19T03:34:36.377Z,100094.16
2022-08-19T03:37:09.633Z,100099.69
2022-08-19T03:39:38.598Z,100104.16
2022-08-19T03:42:30.234Z,100102.44
2022-08-19T03:44:59.797Z,100105.97
2022-08-19T03:47:26.507Z,100110.69
2022-08-19T03:49:53.008Z,100121.44
2022-08-19T03:52:27.792Z,100121.13
2022-08-19T03:54:54.293Z,100115.59
2022-08-19T03:57:31.957Z,100123.34
2022-08-19T04:00:03.912Z,100109.50
2022-08-19T04:02:57.989Z,100110.56
2022-08-19T04:05:29.565Z,100106.72
2022-08-19T04:08:13.762Z,100114.19
2022-08-19T04:10:41.488Z,100106.97
2022-08-19T04:13:14.825Z,100113.06
2022-08-19T04:15:42.993Z,100110.03
2022-08-19T04:18:12.038Z,100113.91
2022-08-19T04:20:51.901Z,100102.31
2022-08-19T04:23:25.821Z,100095.13
2022-08-19T04:25:52.396Z,100101.75
2022-08-19T04:28:18.797Z,100108.38
2022-08-19T04:30:51.332Z,100103.63
2022-08-19T04:33:26.481Z,100116.03
2022-08-19T04:35:59.258Z,100113.66
2022-08-19T04:38:25.756Z,100106.97
2022-08-19T04:41:11.113Z,100099.94
2022-08-19T04:43:40.318Z,100107.47
2022-08-19T04:46:11.386Z,100099.75
2022-08-19T04:49:10.447Z,100111.91
2022-08-19T04:51:45.272Z,100116.59
2022-08-19T04:54:11.708Z,100111.97
2022-08-19T04:56:41.346Z,100114.75
2022-08-19T04:59:17.864Z,100120.63
2022-08-19T05:01:44.405Z,100123.72
2022-08-19T05:04:10.815Z,100118.25
2022-08-19T05:06:39.823Z,100114.38
2022-08-19T05:09:13.010Z,100109.41
2022-08-19T05:11:40.014Z,100130.22
2022-08-19T05:14:15.870Z,100129.69
2022-08-19T05:16:42.385Z,100138.31
2022-08-19T05:19:27.512Z,100136.69
2022-08-19T05:22:13.197Z,100136.69
2022-08-19T05:25:02.368Z,100132.84
2022-08-19T05:27:29.183Z,100129.06
2022-08-19T05:30:08.876Z,100142.06
2022-08-19T05:32:35.546Z,100135.72
2022-08-19T05:35:02.030Z,100150.41
2022-08-19T05:37:28.629Z,100159.03
2022-08-19T05:39:55.760Z,100158.22
2022-08-19T05:42:23.810Z,100162.94
2022-08-19T05:44:52.842Z,100154.41
2022-08-19T05:47:23.019Z,100168.50
2022-08-19T05:49:51.325Z,100176.56
2022-08-19T05:52:19.336Z,100175.22
2022-08-19T05:54:51.114Z,100180.22
2022-08-19T05:57:20.080Z,100182.50
2022-08-19T05:59:57.618Z,100193.91
2022-08-19T06:02:24.873Z,100194.22
2022-08-19T06:04:51.380Z,100202.56
2022-08-19T06:07:25.514Z,100208.09
2022-08-19T06:10:00.998Z,100209.25
2022-08-19T06:12:35.986Z,100207.41
2022-08-19T06:15:09.858Z,100214.34
2022-08-19T06:17:39.209Z,100212.16
2022-08-19T06:20:09.687Z,100218.31
2022-08-19T06:22:44.115Z,100204.50
2022-08-19T06:25:12.170Z,100207.84
2022-08-19T06:27:58.678Z,100219.53
2022-08-19T06:30:29.094Z,100226.22
2022-08-19T06:32:55.554Z,100220.13
2022-08-19T06:35:22.111Z,100221.28
2022-08-19T06:37:58.025Z,100217.97
2022-08-19T06:40:28.393Z,100225.25
2022-08-19T06:42:55.966Z,100226.38
2022-08-19T06:45:34.396Z,100232.56
2022-08-19T06:48:08.935Z,100236.53
2022-08-19T06:50:39.462Z,100240.47
2022-08-19T06:53:09.935Z,100241.63
2022-08-19T06:55:36.440Z,100248.31
2022-08-19T06:58:04.678Z,100256.16
2022-08-19T07:03:06.293Z,100246.00
2022-08-19T07:05:45.308Z,100244.94
2022-08-19T07:08:35.049Z,100237.75
2022-08-19T07:11:09.355Z,100238.06
2022-08-19T07:13:38.652Z,100242.53
2022-08-19T07:16:06.933Z,100248.44
2022-08-19T07:18:38.856Z,100240.94
2022-08-19T07:21:17.543Z,100244.31
2022-08-19T07:23:44.794Z,100241.28
2022-08-19T07:26:20.620Z,100240.19
2022-08-19T07:28:55.935Z,100236.06
2022-08-19T07:31:26.396Z,100239.69
2022-08-19T07:34:00.257Z,100235.25
2022-08-19T07:36:33.200Z,100241.09
2022-08-19T07:39:02.501Z,100237.78
2022-08-19T07:41:32.256Z,100240.56
2022-08-19T07:44:04.450Z,100244.47
2022-08-19T07:46:34.655Z,100237.78
2022-08-19T07:49:01.711Z,100249.19
2022-08-19T07:51:36.747Z,100237.78
2022-08-19T07:54:04.672Z,100240.06
2022-08-19T07:56:34.995Z,100243.94
2022-08-19T07:59:04.181Z,100244.00
2022-08-19T08:01:30.629Z,100244.28
2022-08-19T08:04:24.000Z,100249.00
2022-08-19T08:07:13.193Z,100245.13
2022-08-19T08:09:50.073Z,100243.19
2022-08-19T08:12:34.107Z,100235.13
2022-08-19T08:15:15.010Z,100242.41
2022-08-19T08:17:49.066Z,100257.16
2022-08-19T08:20:30.024Z,100248.59
2022-08-19T08:23:15.184Z,100241.97
2022-08-19T08:25:48.031Z,100263.97
2022-08-19T08:28:17.510Z,100261.19
2022-08-19T08:30:46.703Z,100262.03
2022-08-19T08:35:53.021Z,100254.22
2022-08-19T08:38:19.540Z,100248.13
2022-08-19T08:40:50.881Z,100248.63
2022-08-19T08:43:32.378Z,100260.31
2022-08-19T08:46:09.316Z,100268.94
2022-08-19T08:48:47.391Z,100270.84
2022-08-19T08:52:00.193Z,100279.72
2022-08-19T08:54:34.858Z,100274.72
2022-08-19T08:57:12.027Z,100267.63
2022-08-19T08:59:42.462Z,100301.44
2022-08-19T09:02:17.047Z,100298.41
2022-08-19T09:04:43.677Z,100283.81
2022-08-19T09:08:09.053Z,100276.25
2022-08-19T09:10:55.194Z,100294.06
2022-08-19T09:13:46.850Z,100278.63
2022-08-19T09:16:21.944Z,100298.97
2022-08-19T09:19:00.164Z,100267.84
2022-08-19T09:21:30.586Z,100285.16
2022-08-19T09:24:00.386Z,100306.56
2022-08-19T09:26:47.579Z,100307.72
2022-08-19T09:29:19.206Z,100309.47
2022-08-19T09:31:51.596Z,100303.50
2022-08-19T09:34:20.658Z,100296.09
2022-08-19T09:36:47.286Z,100302.59
2022-08-19T09:39:16.208Z,100298.66
2022-08-19T09:41:47.286Z,100308.19
2022-08-19T09:44:15.387Z,100308.50
2022-08-19T09:46:44.273Z,100306.28
2022-08-19T09:49:10.719Z,100303.47
2022-08-19T09:51:50.843Z,100337.09
2022-08-19T09:54:19.225Z,100335.94
2022-08-19T09:56:57.080Z,100341.06
2022-08-19T09:59:23.774Z,100310.34
2022-08-19T10:01:52.314Z,100321.16
2022-08-19T10:04:20.239Z,100325.66
2022-08-19T10:06:53.767Z,100331.91
2022-08-19T10:09:33.848Z,100322.09
2022-08-19T10:12:03.526Z,100339.38
2022-08-19T10:14:36.186Z,100345.22
2022-08-19T10:17:17.698Z,100322.56
2022-08-19T10:19:55.743Z,100341.78
2022-08-19T10:22:23.401Z,100360.00
2022-08-19T10:24:59.109Z,100320.72
2022-08-19T10:27:33.635Z,100334.88
2022-08-19T10:30:09.879Z,100338.91
2022-08-19T10:32:39.257Z,100328.88
2022-08-19T10:35:21.958Z,100313.75
2022-08-19T10:37:56.852Z,100310.81
2022-08-19T10:40:23.667Z,100326.63
2022-08-19T10:42:52.364Z,100318.41
2022-08-19T10:45:18.897Z,100318.72
2022-08-19T10:47:48.206Z,100331.66
2022-08-19T10:50:33.635Z,100332.75
2022-08-19T10:53:12.129Z,100337.97
2022-08-19T10:55:56.906Z,100336.22
2022-08-19T10:58:27.083Z,100323.22
2022-08-19T11:00:56.114Z,100313.22
2022-08-19T11:03:24.116Z,100314.91
2022-08-19T11:06:06.378Z,100312.00
2022-08-19T11:08:53.131Z,100284.94
2022-08-19T11:11:19.673Z,100296.31
2022-08-19T11:14:33.952Z,100278.78
2022-08-19T11:17:08.356Z,100261.59
2022-08-19T11:19:39.821Z,100237.59
2022-08-19T11:22:21.037Z,100235.88
2022-08-19T11:24:47.509Z,100270.31
2022-08-19T11:27:21.381Z,100276.00
2022-08-19T11:29:53.555Z,100293.59
2022-08-19T11:32:32.383Z,100293.44
2022-08-19T11:34:58.907Z,100284.34
2022-08-19T11:37:25.501Z,100306.59
2022-08-19T11:39:54.946Z,100306.69
2022-08-19T11:42:39.977Z,100287.66
2022-08-19T11:45:07.026Z,100290.66
2022-08-19T11:47:35.095Z,100303.56
2022-08-19T11:50:01.562Z,100301.06
2022-08-19T11:52:28.081Z,100297.97
2022-08-19T11:54:54.796Z,100300.72
2022-08-19T11:57:21.216Z,100283.91
2022-08-19T11:59:52.821Z,100308.28
2022-08-19T12:02:20.094Z,100306.22
2022-08-19T12:04:49.591Z,100304.56
2022-08-19T12:07:23.414Z,100316.53
2022-08-19T12:09:49.845Z,100322.97
2022-08-19T12:12:18.827Z,100326.22
2022-08-19T12:14:45.401Z,100341.59
2022-08-19T12:17:14.254Z,100323.44
2022-08-19T12:19:49.397Z,100318.81
2022-08-19T12:22:15.950Z,100279.19
2022-08-19T12:24:42.367Z,100335.25
2022-08-19T12:27:12.852Z,100329.84
2022-08-19T12:29:42.409Z,100322.81
2022-08-19T12:32:10.367Z,100339.63
2022-08-19T12:34:45.418Z,100330.03
2022-08-19T12:37:14.421Z,100325.53
2022-08-19T12:39:50.491Z,100345.50
2022-08-19T12:42:19.598Z,100334.66
2022-08-19T12:44:55.461Z,100344.78
2022-08-19T12:47:23.054Z,100337.22
2022-08-19T12:49:53.339Z,100330.09
2022-08-19T12:52:23.875Z,100345.00
2022-08-19T12:54:54.026Z,100354.81
2022-08-19T12:57:32.062Z,100360.84
2022-08-19T12:59:59.332Z,100355.59
2022-08-19T13:02:25.828Z,100356.38
2022-08-19T13:05:04.461Z,100345.38
2022-08-19T13:07:33.946Z,100386.78
2022-08-19T13:10:01.077Z,100389.00
2022-08-19T13:12:37.532Z,100424.28
2022-08-19T13:15:10.994Z,100428.03
2022-08-19T13:17:39.274Z,100456.94
2022-08-19T13:20:09.809Z,100435.25
2022-08-19T13:22:37.610Z,100429.66
2022-08-19T13:25:06.252Z,100436.31
2022-08-19T13:27:35.485Z,100423.25
2022-08-19T13:30:26.894Z,100430.78
2022-08-19T13:33:11.699Z,100393.63
2022-08-19T13:36:01.466Z,100386.91
2022-08-19T13:38:35.479Z,100406.38
2022-08-19T13:41:11.041Z,100416.78
2022-08-19T13:43:47.491Z,100421.72
2022-08-19T13:46:20.767Z,100433.06
2022-08-19T13:48:58.519Z,100438.91
2022-08-19T13:51:25.017Z,100438.81
2022-08-19T13:53:51.633Z,100415.25
2022-08-19T13:56:28.506Z,100445.19
2022-08-19T13:58:55.014Z,100449.53
2022-08-19T14:01:27.408Z,100424.59
2022-08-19T14:03:56.067Z,100412.72
2022-08-19T14:06:23.271Z,100441.16
2022-08-19T14:08:49.842Z,100433.72
2022-08-19T14:11:16.870Z,100432.88
2022-08-19T14:13:51.986Z,100418.84
2022-08-19T14:16:18.646Z,100428.44
2022-08-19T14:18:45.647Z,100421.34
2022-08-19T14:21:21.464Z,100416.38
2022-08-19T14:23:48.236Z,100427.28
2022-08-19T14:26:19.631Z,100425.31
2022-08-19T14:28:46.590Z,100404.63
2022-08-19T14:31:20.005Z,100388.28
2022-08-19T14:33:50.285Z,100383.00
2022-08-19T14:36:17.034Z,100375.22
2022-08-19T14:38:44.210Z,100423.38
2022-08-19T14:41:19.534Z,100436.56
2022-08-19T14:43:48.372Z,100426.47
2022-08-19T14:46:29.702Z,100433.84
2022-08-19T14:48:57.049Z,100444.66
2022-08-19T14:51:28.478Z,100423.66
2022-08-19T14:53:55.045Z,100407.00
2022-08-19T14:56:25.125Z,100412.63
2022-08-19T14:59:01.570Z,100404.22
2022-08-19T15:01:28.201Z,100380.50
2022-08-19T15:03:56.863Z,100379.75
2022-08-19T15:06:24.988Z,100416.38
2022-08-19T15:08:55.135Z,100420.31
2022-08-19T15:11:25.018Z,100376.94
2022-08-19T15:14:12.578Z,100401.41
2022-08-19T15:16:42.578Z,100374.34
2022-08-19T15:19:09.605Z,100375.41
2022-08-19T15:21:37.528Z,100399.94
2022-08-19T15:24:10.304Z,100393.41
2022-08-19T15:26:40.025Z,100413.13
2022-08-19T15:29:06.497Z,100430.53
2022-08-19T15:31:37.974Z,100433.94
2022-08-19T15:34:07.024Z,100419.47
2022-08-19T15:36:35.221Z,100405.22
2022-08-19T15:39:09.608Z,100417.84
2022-08-19T15:41:40.854Z,100412.94
2022-08-19T15:44:13.027Z,100391.09
2022-08-19T15:46:44.661Z,100377.34
2022-08-19T15:49:17.381Z,100343.66
2022-08-19T15:51:46.630Z,100352.50
2022-08-19T15:54:17.730Z,100361.22
2022-08-19T15:57:03.090Z,100366.63
2022-08-19T15:59:51.658Z,100364.09
2022-08-19T16:02:39.323Z,100325.75
2022-08-19T16:05:28.025Z,100337.59
2022-08-19T16:07:56.062Z,100326.75
2022-08-19T16:10:29.732Z,100311.78
2022-08-19T16:13:09.615Z,100324.06
2022-08-19T16:15:44.727Z,100356.06
2022-08-19T16:18:14.779Z,100328.28
2022-08-19T16:20:44.256Z,100322.78
2022-08-19T16:23:11.045Z,100342.94
2022-08-19T16:25:44.665Z,100304.06
2022-08-19T16:28:15.519Z,100294.59
2022-08-19T16:30:51.225Z,100294.91
2022-08-19T16:33:22.706Z,100281.19
2022-08-19T16:35:52.008Z,100298.88
2022-08-19T16:38:27.852Z,100308.31
2022-08-19T16:41:01.647Z,100320.16
2022-08-19T16:43:30.664Z,100317.25
2022-08-19T16:45:58.200Z,100316.69
2022-08-19T16:48:30.453Z,100329.66
2022-08-19T16:50:57.936Z,100346.91
2022-08-19T16:53:29.184Z,100355.09
2022-08-19T16:56:03.623Z,100362.06
2022-08-19T16:58:33.970Z,100365.41
2022-08-19T17:01:07.522Z,100361.31
2022-08-19T17:03:36.372Z,100363.78
2022-08-19T17:06:17.795Z,100362.16
2022-08-19T17:08:51.925Z,100383.75
2022-08-19T17:11:19.812Z,100379.56
2022-08-19T17:14:08.664Z,100374.59
2022-08-19T17:16:36.357Z,100382.13
2022-08-19T17:19:06.688Z,100365.06
2022-08-19T17:21:38.054Z,100380.00
2022-08-19T17:24:05.529Z,100386.97
2022-08-19T17:26:38.676Z,100384.69
2022-08-19T17:29:05.834Z,100374.88
2022-08-19T17:31:39.694Z,100381.38
2022-08-19T17:34:06.153Z,100366.19
2022-08-19T17:36:40.703Z,100361.19
2022-08-19T17:39:07.140Z,100360.75
2022-08-19T17:41:34.346Z,100365.75
2022-08-19T17:44:02.370Z,100351.28
2022-08-19T17:46:30.363Z,100334.63
2022-08-19T17:48:57.689Z,100332.13
2022-08-19T17:51:48.701Z,100321.63
2022-08-19T17:54:19.689Z,100314.63
2022-08-19T17:56:47.105Z,100323.59
2022-08-19T17:59:14.608Z,100323.88
2022-08-19T18:01:54.799Z,100324.50
2022-08-19T18:04:25.871Z,100326.50
2022-08-19T18:06:55.010Z,100323.19
2022-08-19T18:09:27.627Z,100302.56
2022-08-19T18:11:58.231Z,100291.28
2022-08-19T18:14:34.413Z,100273.00
2022-08-19T18:17:09.859Z,100277.47
2022-08-19T18:19:41.910Z,100291.50
2022-08-19T18:22:15.753Z,100309.34
2022-08-19T18:24:42.248Z,100312.75
2022-08-19T18:27:11.412Z,100307.75
2022-08-19T18:29:46.771Z,100316.97
2022-08-19T18:32:13.437Z,100303.44
2022-08-19T18:34:46.752Z,100296.75
2022-08-19T18:37:18.084Z,100308.09
2022-08-19T18:40:05.992Z,100324.31
2022-08-19T18:42:53.333Z,100313.84
2022-08-19T18:45:38.347Z,100285.78
2022-08-19T18:48:27.923Z,100300.88
2022-08-19T18:50:57.193Z,100280.31
2022-08-19T18:53:24.338Z,100285.91
2022-08-19T18:55:54.423Z,100269.53
2022-08-19T18:58:32.256Z,100260.94
2022-08-19T19:01:02.609Z,100267.13
2022-08-19T19:03:34.036Z,100268.06
2022-08-19T19:06:04.465Z,100268.66
2022-08-19T19:08:30.942Z,100269.50
2022-08-19T19:11:05.772Z,100290.44
2022-08-19T19:13:33.879Z,100289.63
2022-08-19T19:16:11.770Z,100295.47
2022-08-19T19:18:38.413Z,100297.41
2022-08-19T19:21:11.797Z,100299.66
2022-08-19T19:23:40.916Z,100315.81
2022-08-19T19:26:16.813Z,100317.84
2022-08-19T19:28:45.459Z,100317.84
2022-08-19T19:31:26.497Z,100323.47
2022-08-19T19:33:55.275Z,100324.53
2022-08-19T19:36:23.224Z,100324.34
2022-08-19T19:38:49.710Z,100315.72
2022-08-19T19:41:23.311Z,100330.19
2022-08-19T19:44:10.121Z,100334.66
2022-08-19T19:46:43.464Z,100336.91
2022-08-19T19:49:11.346Z,100338.03
2022-08-19T19:51:41.706Z,100345.88
2022-08-19T19:54:23.041Z,100340.91
2022-08-19T19:56:50.256Z,100337.66
2022-08-19T19:59:19.315Z,100311.75
2022-08-19T20:01:47.851Z,100302.88
2022-08-19T20:04:15.995Z,100307.38
2022-08-19T20:06:45.771Z,100317.72
2022-08-19T20:09:19.536Z,100309.97
2022-08-19T20:11:58.270Z,100310.56
2022-08-19T20:14:31.464Z,100319.53
2022-08-19T20:17:07.141Z,100331.81
2022-08-19T20:19:38.166Z,100338.56
2022-08-19T20:22:06.069Z,100341.13
2022-08-19T20:24:35.263Z,100334.41
2022-08-19T20:27:11.856Z,100335.81
2022-08-19T20:29:44.352Z,100345.91
2022-08-19T20:32:13.241Z,100346.75
2022-08-19T20:34:40.686Z,100345.41
2022-08-19T20:37:09.480Z,100336.22
2022-08-19T20:39:37.072Z,100346.56
2022-08-19T20:42:03.732Z,100352.13
2022-08-19T20:44:30.235Z,100354.09
2022-08-19T20:47:04.038Z,100362.78
2022-08-19T20:49:30.688Z,100379.53
2022-08-19T20:52:06.991Z,100377.28
2022-08-19T20:54:36.261Z,100387.63
2022-08-19T20:57:07.269Z,100387.31
2022-08-19T20:59:43.365Z,100389.59
2022-08-19T21:02:11.100Z,100402.97
2022-08-19T21:04:37.527Z,100409.97
2022-08-19T21:07:04.282Z,100399.63
2022-08-19T21:09:32.337Z,100395.75
2022-08-19T21:11:58.850Z,100398.00
2022-08-19T21:14:27.544Z,100397.16
2022-08-19T21:17:00.909Z,100411.41
2022-08-19T21:19:29.610Z,100413.59
2022-08-19T21:22:02.886Z,100413.06
2022-08-19T21:24:39.683Z,100415.84
2022-08-19T21:27:12.878Z,100408.63
2022-08-19T21:29:40.518Z,100398.00
2022-08-19T21:32:17.905Z,100383.53
2022-08-19T21:34:46.361Z,100379.34
2022-08-19T21:37:25.216Z,100393.31
2022-08-19T21:39:53.268Z,100390.25
2022-08-19T21:42:20.382Z,100400.81
2022-08-19T21:44:46.852Z,100389.09
2022-08-19T21:47:13.624Z,100378.47
2022-08-19T21:49:40.115Z,100371.78
2022-08-19T21:52:07.047Z,100356.44
2022-08-19T21:54:38.880Z,100349.97
2022-08-19T21:57:10.225Z,100342.66
2022-08-19T21:59:39.779Z,100348.19
2022-08-19T22:02:20.301Z,100346.50
2022-08-19T22:04:47.798Z,100338.94
2022-08-19T22:07:14.760Z,100342.50
2022-08-19T22:09:42.761Z,100348.03
2022-08-19T22:12:20.959Z,100343.16
2022-08-19T22:14:58.045Z,100342.81
2022-08-19T22:17:27.405Z,100351.09
2022-08-19T22:19:55.933Z,100347.66
2022-08-19T22:22:24.861Z,100352.00
2022-08-19T22:24:52.437Z,100360.59
2022-08-19T22:27:19.836Z,100371.94
2022-08-19T22:29:46.446Z,100378.03
2022-08-19T22:32:26.756Z,100376.50
2022-08-19T22:34:58.571Z,100385.13
2022-08-19T22:37:32.941Z,100394.63
2022-08-19T22:40:03.278Z,100386.41
2022-08-19T22:42:38.957Z,100381.56
2022-08-19T22:47:41.983Z,100396.00
2022-08-19T22:50:13.840Z,100398.06
2022-08-19T22:52:51.770Z,100403.00
2022-08-19T22:55:21.271Z,100399.34
2022-08-19T22:57:53.408Z,100400.34
2022-08-19T23:00:22.217Z,100393.28
2022-08-19T23:02:51.825Z,100389.88
2022-08-19T23:05:21.914Z,100394.81
2022-08-19T23:07:52.507Z,100383.09
2022-08-19T23:10:27.235Z,100400.03
2022-08-19T23:13:15.987Z,100398.88
2022-08-19T23:15:47.101Z,100395.78
2022-08-19T23:18:13.913Z,100394.09
2022-08-19T23:20:42.707Z,100380.72
2022-08-19T23:23:12.513Z,100396.78
2022-08-19T23:25:39.545Z,100393.38
2022-08-19T23:28:24.565Z,100386.06
2022-08-19T23:30:54.400Z,100386.50
2022-08-19T23:33:42.920Z,100382.31
2022-08-19T23:36:20.742Z,100385.53
2022-08-19T23:38:55.969Z,100397.44
2022-08-19T23:41:23.270Z,100394.53
2022-08-19T23:43:51.456Z,100395.06
2022-08-19T23:46:28.282Z,100396.78
2022-08-19T23:48:56.052Z,100395.28
2022-08-19T23:51:41.999Z,100394.31
2022-08-19T23:54:08.486Z,100390.25
2022-08-19T23:56:35.024Z,100398.91
2022-08-19T23:59:08.042Z,100400.94
